Nauvoo, Illinois
Current Conditions -  °F | °C
As of 7:35 PM on Monday 24 Nov 2014 (Local Time) from KEOK Reporting Station
Overcast Overcast  
Wind Chill: 20°   Ceiling: 2800
Heat Index: 30°   Visibility: 10mi
Dew Point: 25°   Wind: 13mph
Humidity: 80%   Direction: 270°W
Pressure: 29.87"   Gusts: 20mph
Location:  40.55°N, 91.38°W
Report Text: KEOK 250135Z AUTO 27011G17KT 10SM OVC028 M01/M04 A2987 RMK AO2
Loading
Personal Weather Stations






























Interactive Weather Map New forecast layout! Learn more

10-Day Weather Forecast

Advertisements
Track Severe Weather on mobile